Time;durP1;ratioP1;P1;durP2;ratioP2;P2;SDS_P1;SDS_P2;PMS_P1;PMS_P2;Temp;Humidity;BMP_temperature;BMP_pressure;BME280_temperature;BME280_humidity;BME280_pressure;Samples;Min_cycle;Max_cycle;Signal;HPM_P1;HPM_P2
2022/09/05 00:01:04;;;;;;;5.55;3.67;;;18.00;73.30;;;;;;5015059;28;20405;-69
2022/09/05 00:03:33;;;;;;;7.75;4.25;;;18.00;73.60;;;;;;5030810;28;20026;-69
2022/09/05 00:06:11;;;;;;;7.03;4.18;;;18.00;73.60;;;;;;5032004;28;20026;-68
2022/09/05 00:09:19;;;;;;;6.53;3.70;;;18.00;73.80;;;;;;5031372;28;20464;-68
2022/09/05 00:11:53;;;;;;;5.10;3.70;;;18.00;73.70;;;;;;5015734;28;20452;-68
2022/09/05 00:14:24;;;;;;;7.17;4.37;;;17.90;73.90;;;;;;5031762;28;20056;-68
2022/09/05 00:17:26;;;;;;;5.85;3.70;;;18.00;74.00;;;;;;5030942;28;20030;-69
2022/09/05 00:20:34;;;;;;;7.57;4.32;;;18.00;73.90;;;;;;5029064;28;20045;-69
2022/09/05 00:23:18;;;;;;;6.20;3.65;;;17.90;73.80;;;;;;5003380;28;20393;-69
2022/09/05 00:25:57;;;;;;;6.50;3.60;;;17.90;74.00;;;;;;5031211;28;20025;-69
2022/09/05 00:28:49;;;;;;;7.60;4.38;;;17.90;74.30;;;;;;5031646;28;20492;-69
2022/09/05 00:31:15;;;;;;;6.85;4.20;;;17.80;74.20;;;;;;5030237;28;20087;-69
2022/09/05 00:34:11;;;;;;;5.57;3.97;;;17.80;74.30;;;;;;5031530;28;20030;-69
2022/09/05 00:36:55;;;;;;;7.20;4.10;;;17.80;74.30;;;;;;5031866;28;20094;-68
2022/09/05 00:39:34;;;;;;;7.88;5.35;;;17.80;74.30;;;;;;5031272;28;20484;-69
2022/09/05 00:42:08;;;;;;;7.18;4.47;;;17.80;74.60;;;;;;5026099;28;20026;-69
2022/09/05 00:44:46;;;;;;;5.18;4.03;;;17.80;74.50;;;;;;5012086;28;20469;-69
2022/09/05 00:48:00;;;;;;;6.05;3.72;;;17.80;74.50;;;;;;5008132;28;20128;-69
2022/09/05 00:50:42;;;;;;;6.72;3.95;;;17.70;74.60;;;;;;5033653;28;20484;-69
2022/09/05 00:53:26;;;;;;;5.45;3.53;;;17.70;74.60;;;;;;5031698;28;20034;-69
2022/09/05 00:56:14;;;;;;;6.68;3.65;;;17.70;74.70;;;;;;5035307;28;20038;-69
2022/09/05 00:58:49;;;;;;;6.00;3.42;;;17.70;74.90;;;;;;5035415;28;20052;-69
2022/09/05 01:01:30;;;;;;;5.75;3.83;;;17.60;74.90;;;;;;5034548;28;20029;-69
2022/09/05 01:04:35;;;;;;;5.35;3.38;;;17.60;75.00;;;;;;5015542;28;20033;-69
2022/09/05 01:07:06;;;;;;;5.75;4.13;;;17.60;75.00;;;;;;5010591;28;20038;-68
2022/09/05 01:09:50;;;;;;;5.82;3.80;;;17.60;75.10;;;;;;5034465;28;20033;-69
2022/09/05 01:12:54;;;;;;;6.50;4.60;;;17.60;75.20;;;;;;5024785;28;20033;-68
2022/09/05 01:15:33;;;;;;;7.47;4.57;;;17.50;75.10;;;;;;5030631;28;20040;-68
2022/09/05 01:18:25;;;;;;;6.70;4.35;;;17.50;75.20;;;;;;5033808;28;20079;-68
2022/09/05 01:21:12;;;;;;;7.68;4.15;;;17.50;75.60;;;;;;5034103;28;20045;-69
2022/09/05 01:24:35;;;;;;;5.38;4.20;;;17.40;75.60;;;;;;5013803;28;20041;-69
2022/09/05 01:28:10;;;;;;;5.63;3.88;;;17.40;75.60;;;;;;5030231;28;20037;-69
2022/09/05 01:31:22;;;;;;;6.45;3.72;;;17.40;76.20;;;;;;4974008;28;20042;-69
2022/09/05 01:34:28;;;;;;;7.30;4.10;;;17.30;75.70;;;;;;4994988;28;20051;-69
2022/09/05 01:37:39;;;;;;;7.60;4.32;;;17.30;76.00;;;;;;4984395;28;20042;-69
2022/09/05 01:40:48;;;;;;;6.70;3.92;;;17.20;76.00;;;;;;4986893;28;20453;-69
2022/09/05 01:43:49;;;;;;;5.95;4.10;;;17.20;76.10;;;;;;4994831;28;20022;-69
2022/09/05 01:46:48;;;;;;;6.38;4.68;;;17.20;76.30;;;;;;4983623;28;20370;-69
2022/09/05 01:49:58;;;;;;;5.85;3.97;;;17.20;76.70;;;;;;4994999;28;20034;-69
2022/09/05 01:52:49;;;;;;;9.77;4.43;;;17.10;76.60;;;;;;4994640;28;20493;-69
2022/09/05 01:55:32;;;;;;;6.72;4.47;;;17.10;76.90;;;;;;4995414;28;20044;-68
2022/09/05 01:58:23;;;;;;;6.80;3.92;;;17.10;76.90;;;;;;4995062;28;20029;-69
2022/09/05 02:01:08;;;;;;;6.30;4.18;;;17.10;76.90;;;;;;4994905;28;20039;-69
2022/09/05 02:04:01;;;;;;;7.80;4.60;;;17.10;77.10;;;;;;4993516;28;20031;-69
2022/09/05 02:06:38;;;;;;;7.63;4.50;;;17.10;77.20;;;;;;4987776;28;20031;-69
2022/09/05 02:09:23;;;;;;;6.65;4.15;;;17.00;77.10;;;;;;4989419;28;20061;-68
2022/09/05 02:11:49;;;;;;;;;;;17.00;77.50;;;;;;4982779;28;20039;-69
2022/09/05 02:14:56;;;;;;;6.53;4.15;;;17.00;77.00;;;;;;4984898;28;19916;-69
2022/09/05 02:17:45;;;;;;;7.20;4.72;;;16.90;77.30;;;;;;4982669;28;20049;-69
2022/09/05 02:20:24;;;;;;;6.78;4.47;;;16.90;77.60;;;;;;4993680;28;20052;-69
2022/09/05 02:23:21;;;;;;;5.90;4.45;;;16.90;78.00;;;;;;4982076;28;20031;-69
2022/09/05 02:25:57;;;;;;;6.13;4.43;;;16.90;78.10;;;;;;4975346;28;20038;-69
2022/09/05 02:28:53;;;;;;;7.65;4.57;;;16.80;78.20;;;;;;4999681;28;20038;-69
2022/09/05 02:31:37;;;;;;;5.57;3.92;;;16.80;78.30;;;;;;5033227;28;20060;-69
2022/09/05 02:34:14;;;;;;;6.50;4.20;;;16.80;78.30;;;;;;5020126;28;20025;-69
2022/09/05 02:36:49;;;;;;;7.53;5.00;;;16.90;78.50;;;;;;5036383;28;20092;-69
2022/09/05 02:39:15;;;;;;;7.70;5.35;;;16.80;78.60;;;;;;5043948;28;20044;-69
2022/09/05 02:41:56;;;;;;;6.25;4.07;;;16.80;78.70;;;;;;5023717;28;20017;-69
2022/09/05 02:44:45;;;;;;;6.38;4.57;;;16.80;78.80;;;;;;5033552;28;20024;-69
2022/09/05 02:47:50;;;;;;;6.32;4.90;;;16.70;78.80;;;;;;5033188;28;20025;-69
2022/09/05 02:50:33;;;;;;;6.28;4.43;;;16.70;78.80;;;;;;5026698;28;20057;-68
2022/09/05 02:53:01;;;;;;;7.43;4.35;;;16.70;78.90;;;;;;5032315;28;20033;-69
2022/09/05 02:55:42;;;;;;;7.15;4.35;;;16.70;79.00;;;;;;5015691;28;20040;-68
2022/09/05 02:58:15;;;;;;;7.20;4.50;;;16.70;79.10;;;;;;5033483;28;20030;-68
2022/09/05 03:00:58;;;;;;;6.88;4.30;;;16.70;79.20;;;;;;5027103;28;20083;-69
2022/09/05 03:03:50;;;;;;;6.72;4.53;;;16.70;79.30;;;;;;5033269;28;20029;-69
2022/09/05 03:06:23;;;;;;;6.05;4.55;;;16.70;79.40;;;;;;5031703;28;20044;-69
2022/09/05 03:09:00;;;;;;;5.93;3.95;;;16.60;79.40;;;;;;5013410;28;20030;-69
2022/09/05 03:12:03;;;;;;;8.57;4.05;;;16.60;79.60;;;;;;5033241;28;20047;-68
2022/09/05 03:14:32;;;;;;;6.60;4.35;;;16.60;79.50;;;;;;5032527;28;20523;-68
2022/09/05 03:17:24;;;;;;;6.75;4.50;;;16.60;79.60;;;;;;5033266;28;20124;-69
2022/09/05 03:20:09;;;;;;;6.60;4.47;;;16.60;79.80;;;;;;5021442;28;20037;-69
2022/09/05 03:23:02;;;;;;;6.13;4.35;;;16.60;79.90;;;;;;5003871;28;20034;-69
2022/09/05 03:26:01;;;;;;;6.35;4.40;;;16.60;80.00;;;;;;5028251;28;20038;-69
2022/09/05 03:28:52;;;;;;;8.45;4.85;;;16.60;79.90;;;;;;5008175;28;20038;-69
2022/09/05 03:31:38;;;;;;;7.75;4.95;;;16.50;79.90;;;;;;5014064;28;20037;-69
2022/09/05 03:34:32;;;;;;;6.75;4.30;;;16.60;80.00;;;;;;5032006;28;20032;-69
2022/09/05 03:37:45;;;;;;;6.00;3.93;;;16.50;80.00;;;;;;5031685;28;20104;-69
2022/09/05 03:40:29;;;;;;;7.82;4.63;;;16.50;79.80;;;;;;4971183;28;20105;-69
2022/09/05 03:43:26;;;;;;;6.00;4.00;;;16.50;80.00;;;;;;5030950;28;20038;-69
2022/09/05 03:46:08;;;;;;;5.43;4.25;;;16.50;80.20;;;;;;5032405;28;20025;-69
2022/09/05 03:48:54;;;;;;;7.10;4.40;;;16.50;80.70;;;;;;5031421;28;20025;-69
2022/09/05 03:51:31;;;;;;;8.93;4.97;;;16.50;80.60;;;;;;5030512;28;20076;-69
2022/09/05 03:54:04;;;;;;;6.00;4.57;;;16.50;80.60;;;;;;5028658;28;20037;-68
2022/09/05 03:56:39;;;;;;;5.83;3.63;;;16.50;80.60;;;;;;5017250;28;20036;-68
2022/09/05 03:59:14;;;;;;;;;;;16.50;80.70;;;;;;5032079;28;20308;-69
2022/09/05 04:01:46;;;;;;;6.38;4.05;;;16.50;80.20;;;;;;5031433;28;19912;-68
2022/09/05 04:04:33;;;;;;;7.05;3.97;;;16.40;80.50;;;;;;5032057;28;20029;-69
2022/09/05 04:07:08;;;;;;;5.55;4.07;;;16.30;80.80;;;;;;5013866;28;20036;-69
2022/09/05 04:09:53;;;;;;;7.20;4.30;;;16.30;80.90;;;;;;5031247;28;20029;-68
2022/09/05 04:12:57;;;;;;;7.03;4.47;;;16.30;81.00;;;;;;5028359;28;20082;-69
2022/09/05 04:15:42;;;;;;;6.85;4.35;;;16.30;81.10;;;;;;4981036;28;20048;-69
2022/09/05 04:18:24;;;;;;;6.63;3.90;;;16.30;81.10;;;;;;5028807;28;20025;-68
2022/09/05 04:20:57;;;;;;;6.60;4.10;;;16.30;81.30;;;;;;5031971;28;20033;-69
2022/09/05 04:23:34;;;;;;;8.65;4.43;;;16.30;81.40;;;;;;5031302;28;20034;-68
2022/09/05 04:26:03;;;;;;;5.82;3.80;;;16.30;81.40;;;;;;5014884;28;20058;-68
2022/09/05 04:28:37;;;;;;;11.65;4.72;;;16.20;81.80;;;;;;5030879;28;20077;-68
2022/09/05 04:31:30;;;;;;;9.13;4.70;;;16.20;81.60;;;;;;5031732;28;20091;-70
2022/09/05 04:34:26;;;;;;;7.22;4.22;;;16.20;81.40;;;;;;5031430;28;20075;-69
2022/09/05 04:37:04;;;;;;;4.55;3.47;;;16.20;81.70;;;;;;5031395;28;20103;-69
2022/09/05 04:39:32;;;;;;;5.20;3.92;;;16.20;81.90;;;;;;5010319;28;20038;-69
2022/09/05 04:42:12;;;;;;;8.13;4.30;;;16.20;81.90;;;;;;5018787;28;20033;-69
2022/09/05 04:44:47;;;;;;;7.97;4.45;;;16.20;82.00;;;;;;4994543;28;20032;-69
2022/09/05 04:47:43;;;;;;;6.05;3.90;;;16.20;82.00;;;;;;5025978;28;20484;-68
2022/09/05 04:50:16;;;;;;;6.85;3.75;;;16.20;81.90;;;;;;5020217;28;20037;-69
2022/09/05 04:52:47;;;;;;;6.50;4.05;;;16.20;82.20;;;;;;5019578;28;20030;-69
2022/09/05 04:55:25;;;;;;;6.00;4.00;;;16.20;82.10;;;;;;5029186;28;20056;-67
2022/09/05 04:58:10;;;;;;;5.72;3.67;;;16.10;82.10;;;;;;5030333;28;20114;-68
2022/09/05 05:00:50;;;;;;;;;;;16.20;82.10;;;;;;5031787;28;20030;-68
2022/09/05 05:03:21;;;;;;;6.65;3.45;;;16.20;81.70;;;;;;5031206;28;20007;-68
2022/09/05 05:05:46;;;;;;;4.82;3.45;;;16.10;82.00;;;;;;5013773;28;20077;-67
2022/09/05 05:08:21;;;;;;;6.03;3.63;;;16.10;82.10;;;;;;5029804;28;20607;-66
2022/09/05 05:10:50;;;;;;;3.88;2.97;;;16.10;82.20;;;;;;5028073;28;20030;-67
2022/09/05 05:13:35;;;;;;;7.28;3.40;;;16.20;82.20;;;;;;5032090;28;20026;-67
2022/09/05 05:16:24;;;;;;;6.18;3.70;;;16.20;82.20;;;;;;5011749;28;20052;-67
2022/09/05 05:18:52;;;;;;;7.10;3.20;;;16.20;82.20;;;;;;5011772;28;20129;-66
2022/09/05 05:21:21;;;;;;;6.47;3.60;;;16.20;82.40;;;;;;5012585;28;20030;-66
2022/09/05 05:23:57;;;;;;;5.38;3.42;;;16.20;82.40;;;;;;5030855;28;20095;-66
2022/09/05 05:26:29;;;;;;;5.53;3.35;;;16.20;82.50;;;;;;5031151;28;20029;-66
2022/09/05 05:28:58;;;;;;;5.95;3.33;;;16.30;82.60;;;;;;5030966;28;20037;-66
2022/09/05 05:31:28;;;;;;;5.45;3.30;;;16.20;82.40;;;;;;5028050;28;20033;-66
2022/09/05 05:34:00;;;;;;;4.90;3.38;;;16.20;82.50;;;;;;5012126;28;20075;-66
2022/09/05 05:36:32;;;;;;;5.88;3.55;;;16.20;82.70;;;;;;5030223;28;20411;-66
2022/09/05 05:39:14;;;;;;;4.80;3.88;;;16.30;82.80;;;;;;5034445;28;20042;-66
2022/09/05 05:41:47;;;;;;;5.68;3.47;;;16.30;82.70;;;;;;5016382;28;20057;-66
2022/09/05 05:44:16;;;;;;;5.20;3.22;;;16.20;82.60;;;;;;5035026;28;20040;-66
2022/09/05 05:46:53;;;;;;;5.05;2.97;;;16.30;82.90;;;;;;5032018;28;20419;-66
2022/09/05 05:49:25;;;;;;;6.40;3.70;;;16.30;82.80;;;;;;5016781;28;20036;-66
2022/09/05 05:52:18;;;;;;;6.07;3.40;;;16.30;82.90;;;;;;5024216;28;20473;-66
2022/09/05 05:55:06;;;;;;;4.75;3.40;;;16.30;82.90;;;;;;5014802;28;20029;-66
2022/09/05 05:58:05;;;;;;;6.50;3.78;;;16.30;82.90;;;;;;5025101;28;20370;-66
2022/09/05 06:00:59;;;;;;;4.68;3.17;;;16.30;82.90;;;;;;5034348;28;20078;-66
2022/09/05 06:03:58;;;;;;;4.88;3.20;;;16.30;83.40;;;;;;5032851;28;20498;-66
2022/09/05 06:06:48;;;;;;;6.32;3.70;;;16.40;83.40;;;;;;5033225;28;20484;-66
2022/09/05 06:09:33;;;;;;;3.83;2.80;;;16.40;83.40;;;;;;5034174;28;20645;-66
2022/09/05 06:12:20;;;;;;;5.43;3.10;;;16.40;83.30;;;;;;5011006;28;20046;-66
2022/09/05 06:14:47;;;;;;;5.03;3.15;;;16.50;83.50;;;;;;5017200;28;20587;-67
2022/09/05 06:17:33;;;;;;;4.63;3.47;;;16.50;83.50;;;;;;5023146;28;20037;-67
2022/09/05 06:20:10;;;;;;;6.38;3.58;;;16.50;83.50;;;;;;5033309;28;20543;-67
2022/09/05 06:23:01;;;;;;;7.25;3.55;;;16.50;83.50;;;;;;5016513;28;20473;-67
2022/09/05 06:25:58;;;;;;;11.23;3.53;;;16.60;83.90;;;;;;5033683;28;20596;-66
2022/09/05 06:28:35;;;;;;;6.28;3.50;;;16.60;83.90;;;;;;5023409;28;20045;-67
2022/09/05 06:31:01;;;;;;;6.25;3.80;;;16.70;84.10;;;;;;5018707;28;20030;-67
2022/09/05 06:33:51;;;;;;;7.05;3.63;;;16.70;84.10;;;;;;5032054;28;20036;-67
2022/09/05 06:36:45;;;;;;;5.25;3.03;;;16.70;84.00;;;;;;5014717;28;20030;-67
2022/09/05 06:39:31;;;;;;;6.70;3.20;;;16.80;83.80;;;;;;5033690;28;20503;-67
2022/09/05 06:42:04;;;;;;;5.38;2.83;;;16.90;83.80;;;;;;5018703;28;20048;-67
2022/09/05 06:45:02;;;;;;;5.25;3.60;;;17.00;83.80;;;;;;5026764;28;20072;-66
2022/09/05 06:47:31;;;;;;;7.82;3.67;;;17.10;83.90;;;;;;4973611;28;20038;-67
2022/09/05 06:50:21;;;;;;;7.25;3.30;;;17.20;84.00;;;;;;5018006;28;20052;-67
2022/09/05 06:53:15;;;;;;;6.05;3.15;;;17.20;84.10;;;;;;5025470;28;20065;-66
2022/09/05 06:55:58;;;;;;;5.07;3.05;;;17.30;84.10;;;;;;5031313;28;20491;-66
2022/09/05 06:58:54;;;;;;;5.57;3.25;;;17.50;84.00;;;;;;5015668;28;20090;-66
2022/09/05 07:01:26;;;;;;;4.97;3.20;;;17.50;83.90;;;;;;5031403;28;20029;-66
2022/09/05 07:04:02;;;;;;;4.28;3.08;;;17.60;84.10;;;;;;5013719;28;20370;-66
2022/09/05 07:06:55;;;;;;;7.30;3.70;;;17.70;84.20;;;;;;5018954;28;20036;-66
2022/09/05 07:09:42;;;;;;;5.65;4.05;;;17.80;84.40;;;;;;5018632;28;20046;-67
2022/09/05 07:12:17;;;;;;;5.82;3.42;;;17.80;84.30;;;;;;5026919;28;20029;-67
2022/09/05 07:14:58;;;;;;;5.45;3.40;;;17.90;84.50;;;;;;5030031;28;20064;-67
2022/09/05 07:18:00;;;;;;;6.25;3.38;;;18.00;85.00;;;;;;5031750;28;20220;-67
2022/09/05 07:20:35;;;;;;;6.93;3.15;;;18.10;84.40;;;;;;5031534;28;20033;-67
2022/09/05 07:23:16;;;;;;;9.73;3.80;;;18.20;84.60;;;;;;5020321;28;20034;-66
2022/09/05 07:25:47;;;;;;;6.13;3.08;;;18.20;84.00;;;;;;5029828;28;20026;-66
2022/09/05 07:28:14;;;;;;;6.05;3.58;;;18.30;83.60;;;;;;5030437;28;20038;-67
2022/09/05 07:30:47;;;;;;;5.60;3.40;;;18.40;83.70;;;;;;5019181;28;20038;-67
2022/09/05 07:33:27;;;;;;;6.40;3.45;;;18.50;83.50;;;;;;5024651;28;20530;-66
2022/09/05 07:36:04;;;;;;;6.30;4.22;;;18.50;83.50;;;;;;5029828;28;20036;-65
2022/09/05 07:38:32;;;;;;;4.97;3.45;;;18.60;83.20;;;;;;5028902;28;20021;-67
2022/09/05 07:41:12;;;;;;;7.07;3.80;;;18.70;83.70;;;;;;5028724;28;20123;-66
2022/09/05 07:43:39;;;;;;;6.22;3.70;;;18.80;83.40;;;;;;5028942;28;20092;-66
2022/09/05 07:46:11;;;;;;;4.82;3.55;;;18.90;83.50;;;;;;5021155;28;20076;-67
2022/09/05 07:48:52;;;;;;;7.60;3.70;;;19.00;83.40;;;;;;5016135;28;20033;-67
2022/09/05 07:51:24;;;;;;;5.30;3.67;;;19.10;82.90;;;;;;5031420;28;20038;-67
2022/09/05 07:53:52;;;;;;;5.93;3.78;;;19.10;82.30;;;;;;5023493;28;20045;-67
2022/09/05 07:56:42;;;;;;;5.93;3.40;;;19.10;82.40;;;;;;5028832;28;20021;-66
2022/09/05 07:59:11;;;;;;;7.90;3.63;;;19.20;82.30;;;;;;5020069;28;20040;-66
2022/09/05 08:01:42;;;;;;;6.03;3.75;;;19.20;81.80;;;;;;5032545;28;20028;-67
2022/09/05 08:04:26;;;;;;;7.57;3.63;;;19.20;82.20;;;;;;5031976;28;20029;-67
2022/09/05 08:06:59;;;;;;;7.38;3.53;;;19.30;82.00;;;;;;5019303;28;20029;-66
2022/09/05 08:09:29;;;;;;;8.05;3.42;;;19.30;81.80;;;;;;5011998;28;20022;-67
2022/09/05 08:12:00;;;;;;;8.07;3.42;;;19.30;82.00;;;;;;5031911;28;20041;-67
2022/09/05 08:14:43;;;;;;;7.78;3.50;;;19.40;81.60;;;;;;5014064;28;20033;-66
2022/09/05 08:17:22;;;;;;;5.20;3.80;;;19.40;81.70;;;;;;5028865;28;20033;-66
2022/09/05 08:20:17;;;;;;;7.57;3.72;;;19.50;81.60;;;;;;5012619;28;20134;-67
2022/09/05 08:23:29;;;;;;;5.68;4.35;;;19.50;81.90;;;;;;5024405;28;20021;-68
2022/09/05 08:26:28;;;;;;;5.63;4.00;;;19.60;81.60;;;;;;4984550;28;20060;-65
2022/09/05 08:29:12;;;;;;;4.95;3.38;;;19.60;81.40;;;;;;5024534;28;20056;-66
2022/09/05 08:31:51;;;;;;;6.35;4.07;;;19.60;81.40;;;;;;5030165;28;20112;-65
2022/09/05 08:34:28;;;;;;;5.20;3.65;;;19.60;81.70;;;;;;5023645;28;20075;-66
2022/09/05 08:36:56;;;;;;;6.70;4.35;;;19.70;81.50;;;;;;5029352;28;20037;-65
2022/09/05 08:39:25;;;;;;;5.82;3.83;;;19.80;81.90;;;;;;5015512;28;20042;-65
2022/09/05 08:42:13;;;;;;;8.07;4.38;;;19.90;82.00;;;;;;5016570;28;20021;-66
2022/09/05 08:45:05;;;;;;;7.35;3.95;;;20.00;81.90;;;;;;5026408;28;20087;-66
2022/09/05 08:47:42;;;;;;;6.13;3.53;;;20.10;81.80;;;;;;5016422;28;20034;-66
2022/09/05 08:50:34;;;;;;;5.38;4.00;;;20.10;81.60;;;;;;5027418;28;20040;-64
2022/09/05 08:53:37;;;;;;;5.57;3.60;;;20.20;81.60;;;;;;5022634;28;20029;-65
2022/09/05 08:56:09;;;;;;;6.25;4.38;;;20.20;81.00;;;;;;5030034;28;20113;-65
2022/09/05 08:59:06;;;;;;;6.60;3.90;;;20.30;81.10;;;;;;5021753;28;20069;-65
2022/09/05 09:01:57;;;;;;;5.78;3.60;;;20.30;81.00;;;;;;5021637;28;20029;-65
2022/09/05 09:04:47;;;;;;;8.02;3.33;;;20.40;80.90;;;;;;5030790;28;20056;-65
2022/09/05 09:07:16;;;;;;;11.30;4.65;;;20.40;80.90;;;;;;5023484;28;20034;-65
2022/09/05 09:10:09;;;;;;;5.70;4.55;;;20.40;80.60;;;;;;5024661;28;20037;-65
2022/09/05 09:13:21;;;;;;;5.57;3.72;;;20.50;80.60;;;;;;5007924;28;20125;-67
2022/09/05 09:16:07;;;;;;;5.38;3.70;;;20.50;80.70;;;;;;4954170;28;20469;-66
2022/09/05 09:18:59;;;;;;;8.55;4.53;;;20.70;80.60;;;;;;4947720;28;20043;-66
2022/09/05 09:21:34;;;;;;;6.15;4.10;;;20.80;80.80;;;;;;5018409;28;20037;-66
2022/09/05 09:24:45;;;;;;;6.25;3.90;;;20.80;80.60;;;;;;5032463;28;20038;-65
2022/09/05 09:27:29;;;;;;;6.57;3.45;;;21.00;79.80;;;;;;4982705;28;20113;-65
2022/09/05 09:29:58;;;;;;;;;;;21.00;80.10;;;;;;5031753;28;20049;-65
2022/09/05 09:32:24;;;;;;;5.72;4.28;;;21.10;80.20;;;;;;5030637;28;19952;-66
2022/09/05 09:34:55;;;;;;;4.55;3.33;;;21.10;79.70;;;;;;5027149;28;20093;-66
2022/09/05 09:37:42;;;;;;;5.13;3.95;;;21.20;79.60;;;;;;5036547;28;20029;-66
2022/09/05 09:40:47;;;;;;;5.32;3.83;;;21.30;79.30;;;;;;5032037;28;20037;-65
2022/09/05 09:43:57;;;;;;;6.50;3.70;;;21.40;79.60;;;;;;4995612;28;20034;-65
2022/09/05 09:46:42;;;;;;;5.20;3.38;;;21.50;79.00;;;;;;4976943;28;20042;-66
2022/09/05 09:49:26;;;;;;;;;;;21.50;79.10;;;;;;5038413;28;20021;-66
2022/09/05 09:52:21;;;;;;;6.63;3.35;;;21.60;79.30;;;;;;5036603;28;19962;-66
2022/09/05 09:55:06;;;;;;;6.43;3.58;;;21.70;79.10;;;;;;5035298;28;20411;-65
2022/09/05 09:58:11;;;;;;;5.47;3.47;;;21.70;79.20;;;;;;5033169;28;20047;-66
2022/09/05 10:00:57;;;;;;;7.60;3.38;;;21.80;78.50;;;;;;5003018;28;20524;-66
2022/09/05 10:04:02;;;;;;;4.05;3.45;;;21.90;78.10;;;;;;5017553;28;20421;-65
2022/09/05 10:06:42;;;;;;;4.60;3.47;;;22.00;78.20;;;;;;5009748;28;20048;-64
2022/09/05 10:09:46;;;;;;;5.65;3.22;;;22.10;78.10;;;;;;5032399;28;20029;-65
2022/09/05 10:12:33;;;;;;;5.55;3.03;;;22.10;77.50;;;;;;5032525;28;20112;-52
2022/09/05 10:15:24;;;;;;;4.85;3.30;;;22.20;77.60;;;;;;5022464;28;20568;-67
2022/09/05 10:18:08;;;;;;;6.32;3.45;;;22.20;77.50;;;;;;5021211;28;20041;-65
2022/09/05 10:21:11;;;;;;;6.20;3.50;;;22.30;77.10;;;;;;5033497;28;20044;-65
2022/09/05 10:23:55;;;;;;;3.55;3.15;;;22.40;77.40;;;;;;5029652;28;20083;-65
2022/09/05 10:26:43;;;;;;;4.13;3.17;;;22.50;77.30;;;;;;5028277;28;20026;-65
2022/09/05 10:29:12;;;;;;;4.80;3.10;;;22.50;76.80;;;;;;5021367;28;20037;-64
2022/09/05 10:31:55;;;;;;;3.53;3.10;;;22.60;77.00;;;;;;5033660;28;20032;-65
2022/09/05 10:34:26;;;;;;;4.13;2.88;;;22.70;76.50;;;;;;5029173;28;20030;-66
2022/09/05 10:36:58;;;;;;;5.95;3.08;;;22.70;76.60;;;;;;5030184;28;20087;-66
2022/09/05 10:39:36;;;;;;;4.00;3.13;;;22.80;76.00;;;;;;5032552;28;20400;-66
2022/09/05 10:42:09;;;;;;;4.75;3.35;;;22.90;75.80;;;;;;5033449;28;20029;-65
2022/09/05 10:44:39;;;;;;;3.53;2.70;;;22.90;75.80;;;;;;5032854;28;20056;-65
2022/09/05 10:47:24;;;;;;;5.10;3.22;;;23.00;75.50;;;;;;5029848;28;20029;-65
2022/09/05 10:50:15;;;;;;;4.60;2.72;;;23.00;74.80;;;;;;5002881;28;20054;-65
2022/09/05 10:53:28;;;;;;;3.08;2.65;;;23.10;74.50;;;;;;5032971;28;20026;-65
2022/09/05 10:56:18;;;;;;;4.50;3.22;;;23.10;74.50;;;;;;4935304;28;20039;-65
2022/09/05 10:58:50;;;;;;;6.35;3.15;;;23.10;74.20;;;;;;4936904;29;20094;-65
2022/09/05 11:01:32;;;;;;;4.53;3.60;;;23.20;74.50;;;;;;4977282;28;20053;-65
2022/09/05 11:04:20;;;;;;;4.40;3.33;;;23.20;74.30;;;;;;5032240;28;20060;-65
2022/09/05 11:07:01;;;;;;;5.20;3.20;;;23.30;74.30;;;;;;5028957;28;20376;-65
2022/09/05 11:10:09;;;;;;;5.18;3.17;;;23.30;74.20;;;;;;5018088;28;20041;-65
2022/09/05 11:12:43;;;;;;;5.45;3.60;;;23.50;74.10;;;;;;5024823;28;20033;-65
2022/09/05 11:15:47;;;;;;;5.30;3.42;;;23.60;74.00;;;;;;5032276;28;20083;-66
2022/09/05 11:18:32;;;;;;;6.07;3.17;;;23.60;73.50;;;;;;5026902;28;20107;-65
2022/09/05 11:21:23;;;;;;;5.72;3.35;;;23.70;72.80;;;;;;5012940;28;20127;-65
2022/09/05 11:24:06;;;;;;;3.97;3.00;;;23.70;73.00;;;;;;5028566;28;20392;-66
2022/09/05 11:26:46;;;;;;;3.58;3.00;;;23.80;72.00;;;;;;5012576;28;20033;-65
2022/09/05 11:29:17;;;;;;;3.90;3.22;;;23.80;71.50;;;;;;5024998;28;20408;-64
2022/09/05 11:32:11;;;;;;;4.68;3.25;;;23.90;71.20;;;;;;5025705;28;20098;-65
2022/09/05 11:35:01;;;;;;;5.53;3.55;;;23.80;70.20;;;;;;5019489;28;20501;-64
2022/09/05 11:37:58;;;;;;;3.28;2.97;;;23.90;70.80;;;;;;5024301;28;20061;-65
2022/09/05 11:40:35;;;;;;;5.65;3.30;;;23.90;71.00;;;;;;5035259;28;20045;-65
2022/09/05 11:43:10;;;;;;;3.75;3.22;;;23.90;71.50;;;;;;5017433;28;20022;-65
2022/09/05 11:46:11;;;;;;;6.45;3.17;;;24.00;71.00;;;;;;5018791;28;20112;-66
2022/09/05 11:49:09;;;;;;;4.65;3.17;;;24.10;70.80;;;;;;5018110;28;20087;-64
2022/09/05 11:51:46;;;;;;;3.75;2.90;;;24.10;70.50;;;;;;5027910;28;20801;-65
2022/09/05 11:54:43;;;;;;;4.65;3.10;;;24.10;70.00;;;;;;5017352;28;20022;-65
2022/09/05 11:57:35;;;;;;;3.70;2.80;;;24.10;70.10;;;;;;5032281;28;20083;-65
2022/09/05 12:00:12;;;;;;;5.55;3.83;;;24.10;69.90;;;;;;5030209;28;20044;-65
2022/09/05 12:03:05;;;;;;;4.10;3.20;;;24.20;69.90;;;;;;5036955;28;20502;-65
2022/09/05 12:05:58;;;;;;;5.90;4.07;;;24.20;69.60;;;;;;4984899;28;20385;-65
2022/09/05 12:08:41;;;;;;;5.93;3.10;;;24.30;69.90;;;;;;5029566;28;20500;-65
2022/09/05 12:11:44;;;;;;;4.47;3.38;;;24.30;69.30;;;;;;5019902;28;20449;-65
2022/09/05 12:14:35;;;;;;;4.78;3.63;;;24.30;68.70;;;;;;4992319;28;20546;-65
2022/09/05 12:17:15;;;;;;;5.82;3.60;;;24.40;69.00;;;;;;5018410;28;20022;-64
2022/09/05 12:19:55;;;;;;;5.50;3.45;;;24.40;69.00;;;;;;5018076;28;20073;-65
2022/09/05 12:22:33;;;;;;;4.00;3.50;;;24.50;68.80;;;;;;5029103;28;20029;-65
2022/09/05 12:25:46;;;;;;;5.57;3.58;;;24.60;68.50;;;;;;5032063;28;20029;-65
2022/09/05 12:28:22;;;;;;;4.03;3.47;;;24.60;68.10;;;;;;5022137;28;20042;-65
2022/09/05 12:30:49;;;;;;;5.43;3.80;;;24.60;68.20;;;;;;5020923;28;20041;-65
2022/09/05 12:33:27;;;;;;;4.93;3.53;;;24.70;68.70;;;;;;5024212;28;20033;-65
2022/09/05 12:36:02;;;;;;;6.00;4.20;;;24.70;68.50;;;;;;5031261;28;20045;-65
2022/09/05 12:38:56;;;;;;;3.83;3.42;;;24.90;68.40;;;;;;5030164;28;20049;-65
2022/09/05 12:41:25;;;;;;;4.78;3.08;;;24.90;67.40;;;;;;5029045;28;20033;-65
2022/09/05 12:43:54;;;;;;;5.57;3.90;;;24.90;67.30;;;;;;5031159;28;20025;-64
2022/09/05 12:46:26;;;;;;;4.28;3.78;;;24.90;66.90;;;;;;5028698;28;20041;-65
2022/09/05 12:48:58;;;;;;;4.93;3.80;;;24.90;67.10;;;;;;5024330;28;20079;-65
2022/09/05 12:51:28;;;;;;;4.90;3.92;;;25.10;66.80;;;;;;5021388;28;20026;-65
2022/09/05 12:53:57;;;;;;;5.57;3.65;;;25.10;66.60;;;;;;5021198;28;20040;-65
2022/09/05 12:56:40;;;;;;;4.30;3.38;;;25.10;66.50;;;;;;5029384;28;20026;-65
2022/09/05 12:59:16;;;;;;;4.10;3.70;;;25.20;66.70;;;;;;5020126;28;20030;-65
2022/09/05 13:01:44;;;;;;;5.30;3.47;;;25.20;66.80;;;;;;5024407;28;20037;-65
2022/09/05 13:04:20;;;;;;;5.15;3.70;;;25.20;65.70;;;;;;5023823;28;20026;-65
2022/09/05 13:06:55;;;;;;;4.35;3.95;;;25.30;66.60;;;;;;5026762;28;20116;-65
2022/09/05 13:09:28;;;;;;;5.07;4.13;;;25.20;65.60;;;;;;5029701;28;20052;-65
2022/09/05 13:12:03;;;;;;;6.63;4.10;;;25.20;65.40;;;;;;5024697;28;20033;-65
2022/09/05 13:14:31;;;;;;;9.02;3.70;;;25.20;65.70;;;;;;5021115;28;20508;-65
2022/09/05 13:17:00;;;;;;;5.65;3.95;;;25.10;65.20;;;;;;5025450;28;20041;-64
2022/09/05 13:19:36;;;;;;;4.95;3.83;;;25.00;65.60;;;;;;5024903;28;20129;-64
2022/09/05 13:22:03;;;;;;;7.03;3.97;;;25.00;65.60;;;;;;5018969;28;20029;-64
2022/09/05 13:24:34;;;;;;;8.52;4.03;;;25.00;65.20;;;;;;5023418;28;20603;-64
2022/09/05 13:27:18;;;;;;;5.60;3.88;;;25.00;65.20;;;;;;5025018;28;20492;-64
2022/09/05 13:29:52;;;;;;;6.05;3.85;;;25.10;65.60;;;;;;5023506;28;20136;-65
2022/09/05 13:32:18;;;;;;;;;;;25.10;65.50;;;;;;5026794;28;20041;-65
2022/09/05 13:34:46;;;;;;;4.93;3.55;;;25.10;65.60;;;;;;5030474;28;19920;-66
2022/09/05 13:37:22;;;;;;;5.78;3.95;;;25.10;65.90;;;;;;5023733;28;20045;-66
2022/09/05 13:40:09;;;;;;;6.80;4.13;;;25.20;65.70;;;;;;5029407;28;20045;-65
2022/09/05 13:42:43;;;;;;;5.13;3.83;;;25.20;65.70;;;;;;5026953;28;20041;-66
2022/09/05 13:45:17;;;;;;;7.93;4.03;;;25.10;65.30;;;;;;5019762;28;20034;-67
2022/09/05 13:48:35;;;;;;;5.07;4.57;;;25.10;65.10;;;;;;5017445;28;20037;-66
2022/09/05 13:51:40;;;;;;;4.40;3.58;;;25.00;65.10;;;;;;5003976;28;20069;-67
2022/09/05 13:54:25;;;;;;;;;;;25.00;65.00;;;;;;5022404;28;20033;-67
2022/09/05 13:57:16;;;;;;;4.00;3.60;;;25.00;65.20;;;;;;5028648;28;19917;-67
2022/09/05 14:00:16;;;;;;;5.20;3.85;;;25.10;65.50;;;;;;5005652;28;20034;-67
2022/09/05 14:03:13;;;;;;;4.55;3.80;;;25.20;65.00;;;;;;5020209;28;20441;-66
2022/09/05 14:05:47;;;;;;;5.90;3.60;;;25.20;64.60;;;;;;5031742;28;20036;-66
2022/09/05 14:09:03;;;;;;;4.25;3.47;;;25.20;64.70;;;;;;5029357;28;20030;-66
2022/09/05 14:11:54;;;;;;;5.05;3.83;;;25.20;64.40;;;;;;5001458;28;20038;-67
2022/09/05 14:14:57;;;;;;;5.18;4.15;;;25.30;65.10;;;;;;5008722;28;20029;-67